Terminal Aerodrome Forecast
Issued by NWS

Home | Current Version | Previous Version | Graphics & Text | Print | Product List | Glossary On
Versions: 1 2 3 4 5 6 7 8 9 10 11
333
FTUS43 KMPX 241721
TAFRNH
TAF
KRNH 241721Z 2418/2518 15018G26KT P6SM BKN150
     FM242100 17017G25KT P6SM VCSH BKN090
     FM242300 16013KT P6SM BKN110
     FM251300 17005KT P6SM BKN025
     FM251700 13005KT P6SM BKN035=

USA.gov is the U.S. government's official web portal to all federal, state and local government web resources and services.